createdAt,value
2022-11-18T00:00:13.660Z,8.16
2022-11-18T00:02:59.882Z,8.79
2022-11-18T00:05:58.132Z,9.38
2022-11-18T00:08:44.491Z,9.71
2022-11-18T00:11:49.006Z,9.69
2022-11-18T00:14:35.133Z,9.59
2022-11-18T00:17:20.982Z,9.56
2022-11-18T00:20:07.057Z,9.53
2022-11-18T00:22:52.697Z,9.53
2022-11-18T00:25:39.016Z,9.41
2022-11-18T00:28:24.825Z,9.30
2022-11-18T00:31:12.131Z,9.27
2022-11-18T00:33:58.227Z,9.36
2022-11-18T00:36:44.792Z,8.19
2022-11-18T00:39:30.608Z,8.71
2022-11-18T00:42:35.203Z,9.20
2022-11-18T00:45:21.916Z,9.25
2022-11-18T00:48:08.011Z,9.19
2022-11-18T00:50:54.987Z,9.15
2022-11-18T00:53:41.085Z,9.00
2022-11-18T00:56:27.022Z,9.14
2022-11-18T00:59:13.265Z,9.06
2022-11-18T01:01:59.133Z,8.88
2022-11-18T01:04:45.420Z,8.96
2022-11-18T01:07:31.232Z,8.86
2022-11-18T01:10:17.541Z,8.61
2022-11-18T01:13:23.684Z,8.23
2022-11-18T01:16:09.899Z,8.46
2022-11-18T01:18:55.801Z,8.49
2022-11-18T01:21:42.431Z,8.65
2022-11-18T01:24:28.574Z,8.73
2022-11-18T01:27:14.492Z,8.77
2022-11-18T01:30:00.288Z,8.76
2022-11-18T01:32:46.534Z,8.51
2022-11-18T01:35:42.654Z,8.18
2022-11-18T01:38:28.547Z,8.56
2022-11-18T01:41:14.654Z,8.79
2022-11-18T01:44:00.680Z,8.11
2022-11-18T01:46:46.569Z,8.41
2022-11-18T01:49:33.050Z,7.79
2022-11-18T01:52:18.778Z,6.18
2022-11-18T01:55:06.767Z,7.50
2022-11-18T01:57:54.048Z,8.00
2022-11-18T02:00:39.999Z,8.08
2022-11-18T02:03:25.925Z,8.10
2022-11-18T02:06:12.407Z,7.63
2022-11-18T02:08:58.141Z,6.85
2022-11-18T02:11:56.280Z,7.52
2022-11-18T02:14:43.319Z,6.84
2022-11-18T02:17:32.137Z,6.46
2022-11-18T02:20:29.015Z,5.85
2022-11-18T02:23:21.219Z,6.47
2022-11-18T02:26:16.445Z,7.27
2022-11-18T02:29:09.747Z,7.91
2022-11-18T02:31:57.313Z,7.58
2022-11-18T02:35:02.681Z,8.10
2022-11-18T02:37:55.328Z,7.44
2022-11-18T02:40:42.985Z,7.68
2022-11-18T02:43:36.906Z,7.95
2022-11-18T02:46:35.901Z,7.65
2022-11-18T02:49:22.825Z,6.87
2022-11-18T02:52:08.814Z,6.74
2022-11-18T02:54:54.637Z,6.71
2022-11-18T02:57:40.410Z,7.40
2022-11-18T03:00:26.126Z,6.89
2022-11-18T03:03:24.718Z,7.54
2022-11-18T03:06:10.502Z,6.68
2022-11-18T03:09:11.111Z,6.02
2022-11-18T03:12:01.575Z,7.28
2022-11-18T03:15:06.322Z,6.72
2022-11-18T03:17:52.310Z,6.73
2022-11-18T03:20:39.190Z,7.18
2022-11-18T03:23:29.234Z,7.97
2022-11-18T03:26:19.794Z,8.27
2022-11-18T03:29:06.775Z,7.48
2022-11-18T03:31:54.607Z,7.32
2022-11-18T03:34:41.586Z,6.90
2022-11-18T03:37:27.860Z,7.39
2022-11-18T03:40:23.696Z,7.59
2022-11-18T03:43:11.025Z,7.83
2022-11-18T03:45:59.724Z,7.58
2022-11-18T03:48:48.183Z,7.68
2022-11-18T03:51:36.299Z,6.98
2022-11-18T03:54:22.513Z,7.75
2022-11-18T03:57:20.390Z,7.31
2022-11-18T04:00:07.685Z,6.51
2022-11-18T04:02:53.866Z,6.18
2022-11-18T04:05:40.804Z,6.84
2022-11-18T04:08:27.667Z,7.74
2022-11-18T04:11:37.351Z,6.89
2022-11-18T04:14:23.457Z,7.88
2022-11-18T04:17:10.999Z,7.96
2022-11-18T04:19:57.183Z,7.82
2022-11-18T04:22:43.103Z,8.08
2022-11-18T04:25:28.856Z,6.89
2022-11-18T04:28:14.789Z,7.33
2022-11-18T04:31:01.206Z,8.00
2022-11-18T04:33:46.970Z,8.24
2022-11-18T04:36:32.804Z,7.74
2022-11-18T04:39:19.070Z,8.47
2022-11-18T04:42:05.179Z,8.88
2022-11-18T04:44:50.953Z,9.03
2022-11-18T04:47:43.361Z,9.04
2022-11-18T04:50:36.918Z,8.16
2022-11-18T04:53:24.253Z,8.72
2022-11-18T04:56:13.208Z,9.02
2022-11-18T04:59:08.951Z,8.16
2022-11-18T05:01:59.575Z,8.90
2022-11-18T05:04:45.832Z,8.98
2022-11-18T05:07:31.986Z,9.27
2022-11-18T05:10:18.125Z,9.15
2022-11-18T05:13:23.965Z,9.22
2022-11-18T05:16:12.841Z,9.44
2022-11-18T05:19:12.137Z,9.46
2022-11-18T05:22:09.542Z,8.75
2022-11-18T05:24:59.404Z,8.56
2022-11-18T05:27:45.850Z,9.14
2022-11-18T05:30:33.523Z,8.88
2022-11-18T05:33:39.573Z,7.74
2022-11-18T05:36:25.969Z,8.24
2022-11-18T05:39:20.838Z,8.51
2022-11-18T05:42:25.883Z,8.43
2022-11-18T05:45:11.915Z,9.13
2022-11-18T05:48:00.857Z,9.47
2022-11-18T05:50:47.987Z,9.46
2022-11-18T05:53:33.624Z,9.08
2022-11-18T05:56:24.444Z,9.62
2022-11-18T05:59:10.423Z,9.50
2022-11-18T06:02:00.946Z,9.79
2022-11-18T06:04:48.741Z,9.77
2022-11-18T06:07:36.003Z,9.42
2022-11-18T06:10:23.111Z,9.22
2022-11-18T06:13:09.416Z,9.26
2022-11-18T06:15:55.598Z,9.19
2022-11-18T06:18:41.497Z,9.22
2022-11-18T06:21:27.662Z,8.92
2022-11-18T06:24:13.633Z,9.68
2022-11-18T06:26:59.881Z,9.57
2022-11-18T06:29:45.423Z,9.50
2022-11-18T06:32:31.696Z,9.26
2022-11-18T06:35:17.603Z,9.77
2022-11-18T06:38:03.963Z,9.81
2022-11-18T06:40:49.822Z,10.17
2022-11-18T06:43:41.937Z,9.79
2022-11-18T06:46:46.646Z,10.00
2022-11-18T06:49:33.095Z,9.93
2022-11-18T06:52:18.736Z,10.08
2022-11-18T06:55:07.280Z,10.19
2022-11-18T06:57:52.966Z,9.89
2022-11-18T07:00:39.288Z,10.05
2022-11-18T07:03:25.041Z,9.79
2022-11-18T07:06:11.919Z,9.64
2022-11-18T07:08:57.692Z,10.11
2022-11-18T07:11:43.957Z,10.15
2022-11-18T07:14:29.970Z,10.17
2022-11-18T07:17:15.955Z,9.78
2022-11-18T07:20:01.885Z,10.18
2022-11-18T07:22:48.273Z,10.23
2022-11-18T07:25:34.216Z,10.26
2022-11-18T07:28:20.574Z,9.99
2022-11-18T07:31:07.342Z,10.20
2022-11-18T07:33:56.095Z,9.73
2022-11-18T07:36:42.053Z,9.45
2022-11-18T07:39:28.341Z,9.75
2022-11-18T07:42:14.180Z,10.04
2022-11-18T07:45:00.560Z,10.07
2022-11-18T07:47:46.293Z,9.85
2022-11-18T07:50:32.247Z,9.61
2022-11-18T07:53:18.149Z,9.91
2022-11-18T07:56:04.956Z,10.09
2022-11-18T07:58:54.487Z,9.34
2022-11-18T08:01:40.763Z,9.93
2022-11-18T08:04:26.943Z,9.91
2022-11-18T08:07:14.110Z,10.10
2022-11-18T08:10:00.247Z,9.82
2022-11-18T08:12:45.966Z,9.80
2022-11-18T08:15:31.824Z,9.50
2022-11-18T08:18:17.777Z,9.66
2022-11-18T08:21:04.404Z,9.59
2022-11-18T08:23:54.074Z,9.16
2022-11-18T08:26:40.422Z,9.90
2022-11-18T08:29:27.738Z,9.87
2022-11-18T08:32:14.147Z,9.39
2022-11-18T08:35:00.203Z,9.65
2022-11-18T08:37:46.389Z,9.84
2022-11-18T08:40:32.285Z,9.97
2022-11-18T08:43:18.584Z,10.06
2022-11-18T08:46:04.576Z,10.10
2022-11-18T08:48:51.067Z,9.58
2022-11-18T08:51:36.794Z,9.93
2022-11-18T08:54:23.357Z,9.76
2022-11-18T08:57:09.621Z,9.62
2022-11-18T08:59:55.522Z,10.14
2022-11-18T09:02:41.387Z,10.16
2022-11-18T09:05:27.752Z,9.95
2022-11-18T09:08:13.554Z,9.93
2022-11-18T09:10:59.547Z,9.87
2022-11-18T09:14:25.903Z,10.19
2022-11-18T09:16:51.458Z,10.16
2022-11-18T09:19:47.201Z,9.40
2022-11-18T09:22:36.052Z,9.22
2022-11-18T09:25:22.000Z,10.12
2022-11-18T09:28:08.733Z,10.03
2022-11-18T09:30:55.097Z,9.42
2022-11-18T09:33:41.528Z,9.89
2022-11-18T09:36:27.666Z,10.09
2022-11-18T09:39:13.682Z,9.73
2022-11-18T09:42:02.237Z,9.80
2022-11-18T09:44:52.047Z,10.14
2022-11-18T09:47:37.620Z,10.18
2022-11-18T09:53:29.554Z,10.07
2022-11-18T09:56:16.326Z,9.47
2022-11-18T09:59:03.397Z,9.88
2022-11-18T10:01:49.852Z,9.61
2022-11-18T10:04:37.260Z,9.53
2022-11-18T10:07:26.493Z,9.77
2022-11-18T10:10:14.337Z,9.90
2022-11-18T10:13:05.838Z,9.27
2022-11-18T10:16:04.528Z,9.56
2022-11-18T10:19:09.013Z,9.73
2022-11-18T10:22:01.112Z,9.73
2022-11-18T10:24:49.829Z,9.71
2022-11-18T10:27:40.353Z,9.74
2022-11-18T10:30:26.308Z,9.70
2022-11-18T10:33:19.870Z,9.41
2022-11-18T10:36:15.073Z,9.57
2022-11-18T10:39:11.837Z,9.28
2022-11-18T10:42:00.532Z,9.58
2022-11-18T10:44:46.849Z,9.56
2022-11-18T10:47:33.816Z,9.41
2022-11-18T10:50:33.508Z,9.54
2022-11-18T10:53:36.083Z,9.34
2022-11-18T10:56:22.157Z,9.51
2022-11-18T10:59:11.386Z,9.61
2022-11-18T11:01:58.625Z,9.76
2022-11-18T11:04:48.469Z,9.86
2022-11-18T11:07:37.908Z,9.26
2022-11-18T11:10:24.249Z,9.45
2022-11-18T11:13:13.229Z,8.86
2022-11-18T11:16:00.367Z,9.31
2022-11-18T11:18:46.768Z,10.02
2022-11-18T11:21:32.662Z,9.32
2022-11-18T11:24:19.406Z,8.80
2022-11-18T11:30:34.345Z,8.13
2022-11-18T11:33:20.950Z,8.80
2022-11-18T11:36:07.363Z,8.71
2022-11-18T11:38:59.900Z,7.67
2022-11-18T11:42:07.849Z,7.58
2022-11-18T11:44:53.725Z,7.57
2022-11-18T11:47:50.081Z,7.48
2022-11-18T11:51:03.343Z,7.51
2022-11-18T11:54:03.504Z,7.79
2022-11-18T11:56:51.640Z,8.68
2022-11-18T11:59:37.852Z,9.25
2022-11-18T12:02:30.068Z,9.43
2022-11-18T12:05:34.502Z,9.74
2022-11-18T12:08:28.934Z,8.90
2022-11-18T12:11:26.188Z,8.95
2022-11-18T12:14:11.643Z,9.52
2022-11-18T12:17:05.191Z,9.37
2022-11-18T12:19:50.672Z,9.16
2022-11-18T12:23:16.012Z,9.20
2022-11-18T12:26:11.050Z,9.61
2022-11-18T12:28:57.285Z,9.88
2022-11-18T12:31:42.924Z,10.21
2022-11-18T12:34:34.933Z,10.34
2022-11-18T12:37:20.483Z,10.33
2022-11-18T12:40:08.217Z,9.96
2022-11-18T12:43:12.857Z,9.50
2022-11-18T12:45:59.170Z,10.16
2022-11-18T12:48:44.740Z,9.23
2022-11-18T12:51:40.428Z,9.85
2022-11-18T12:54:26.206Z,9.87
2022-11-18T12:57:15.160Z,10.20
2022-11-18T13:00:19.728Z,9.75
2022-11-18T13:03:05.679Z,9.69
2022-11-18T13:05:57.468Z,9.55
2022-11-18T13:08:43.909Z,10.08
2022-11-18T13:11:45.441Z,9.51
2022-11-18T13:14:54.308Z,9.87
2022-11-18T13:17:52.227Z,9.60
2022-11-18T13:20:38.703Z,8.21
2022-11-18T13:23:48.064Z,9.08
2022-11-18T13:26:34.967Z,8.44
2022-11-18T13:29:28.980Z,8.64
2022-11-18T13:32:22.441Z,9.33
2022-11-18T13:35:11.221Z,9.31
2022-11-18T13:37:58.602Z,8.99
2022-11-18T13:41:04.387Z,8.25
2022-11-18T13:43:53.985Z,8.37
2022-11-18T13:46:40.200Z,8.13
2022-11-18T13:49:50.120Z,8.03
2022-11-18T13:52:55.314Z,7.73
2022-11-18T13:55:44.389Z,8.09
2022-11-18T13:59:10.555Z,8.70
2022-11-18T14:01:46.733Z,9.08
2022-11-18T14:04:33.226Z,9.48
2022-11-18T14:07:22.148Z,8.59
2022-11-18T14:10:08.925Z,8.25
2022-11-18T14:12:59.259Z,8.30
2022-11-18T14:15:45.814Z,8.35
2022-11-18T14:18:32.519Z,8.41
2022-11-18T14:21:31.701Z,7.92
2022-11-18T14:24:18.015Z,8.70
2022-11-18T14:27:23.172Z,8.43
2022-11-18T14:30:28.437Z,9.00
2022-11-18T14:33:21.644Z,8.70
2022-11-18T14:36:10.562Z,8.47
2022-11-18T14:39:25.845Z,8.96
2022-11-18T14:42:02.444Z,9.84
2022-11-18T14:44:48.452Z,10.05
2022-11-18T14:47:34.267Z,9.54
2022-11-18T14:50:20.278Z,9.99
2022-11-18T14:53:06.233Z,10.17
2022-11-18T14:55:52.779Z,10.27
2022-11-18T14:58:38.448Z,10.17
2022-11-18T15:01:29.281Z,9.85
2022-11-18T15:04:17.818Z,10.16
2022-11-18T15:07:04.104Z,9.86
2022-11-18T15:09:49.946Z,9.75
2022-11-18T15:12:36.585Z,9.54
2022-11-18T15:15:22.371Z,9.24
2022-11-18T15:18:09.004Z,9.63
2022-11-18T15:20:54.907Z,9.16
2022-11-18T15:23:41.398Z,9.93
2022-11-18T15:26:35.782Z,9.91
2022-11-18T15:29:23.872Z,10.19
2022-11-18T15:32:09.488Z,10.21
2022-11-18T15:34:55.954Z,10.20
2022-11-18T15:37:41.830Z,10.34
2022-11-18T15:40:27.892Z,10.22
2022-11-18T15:43:13.652Z,10.22
2022-11-18T15:46:00.205Z,10.23
2022-11-18T15:48:46.031Z,10.32
2022-11-18T15:51:33.307Z,10.29
2022-11-18T15:54:19.892Z,9.94
2022-11-18T15:57:06.488Z,10.30
2022-11-18T15:59:52.308Z,9.94
2022-11-18T16:02:38.302Z,10.31
2022-11-18T16:05:24.662Z,9.55
2022-11-18T16:08:10.609Z,9.88
2022-11-18T16:11:15.799Z,9.58
2022-11-18T16:14:02.276Z,9.80
2022-11-18T16:16:49.049Z,10.04
2022-11-18T16:19:34.812Z,10.26
2022-11-18T16:22:20.770Z,10.18
2022-11-18T16:25:06.647Z,9.76
2022-11-18T16:27:53.164Z,9.74
2022-11-18T16:30:58.142Z,10.26
2022-11-18T16:33:44.229Z,10.22
2022-11-18T16:36:30.202Z,10.29
2022-11-18T16:39:17.739Z,10.22
2022-11-18T16:42:08.722Z,10.12
2022-11-18T16:44:55.172Z,10.06
2022-11-18T16:47:41.091Z,9.99
2022-11-18T16:50:27.396Z,10.19
2022-11-18T16:53:13.163Z,9.91
2022-11-18T16:56:03.167Z,9.65
2022-11-18T16:58:49.036Z,9.18
2022-11-18T17:01:35.234Z,9.41
2022-11-18T17:04:21.140Z,9.94
2022-11-18T17:07:07.330Z,10.18
2022-11-18T17:09:53.204Z,9.94
2022-11-18T17:12:40.437Z,9.27
2022-11-18T17:15:26.457Z,10.04
2022-11-18T17:18:14.273Z,10.21
2022-11-18T17:21:07.132Z,10.25
2022-11-18T17:23:53.422Z,10.08
2022-11-18T17:26:38.896Z,10.08
2022-11-18T17:29:24.876Z,9.13
2022-11-18T17:32:10.885Z,8.93
2022-11-18T17:34:56.905Z,8.62
2022-11-18T17:37:42.862Z,7.78
2022-11-18T17:40:28.616Z,7.11
2022-11-18T17:43:15.522Z,7.73
2022-11-18T17:46:01.941Z,6.87
2022-11-18T17:48:47.888Z,6.94
2022-11-18T17:51:33.851Z,6.73
2022-11-18T17:54:20.567Z,6.73
2022-11-18T17:57:07.015Z,6.88
2022-11-18T17:59:52.952Z,6.74
2022-11-18T18:02:39.261Z,6.92
2022-11-18T18:05:25.658Z,7.07
2022-11-18T18:08:11.278Z,7.03
2022-11-18T18:11:04.558Z,6.71
2022-11-18T18:14:09.982Z,7.02
2022-11-18T18:16:57.857Z,7.62
2022-11-18T18:19:49.941Z,7.07
2022-11-18T18:22:36.198Z,6.90
2022-11-18T18:25:22.270Z,6.94
2022-11-18T18:28:08.252Z,6.89
2022-11-18T18:31:00.745Z,7.09
2022-11-18T18:33:47.413Z,6.76
2022-11-18T18:36:33.416Z,6.87
2022-11-18T18:39:19.775Z,6.90
2022-11-18T18:42:05.752Z,7.39
2022-11-18T18:45:10.904Z,6.80
2022-11-18T18:47:56.552Z,6.65
2022-11-18T18:50:42.852Z,7.09
2022-11-18T18:53:30.283Z,7.26
2022-11-18T18:56:16.561Z,6.48
2022-11-18T18:59:02.519Z,6.65
2022-11-18T19:01:48.758Z,6.41
2022-11-18T19:04:34.500Z,6.64
2022-11-18T19:07:21.122Z,6.46
2022-11-18T19:10:07.501Z,6.50
2022-11-18T19:12:53.601Z,6.82
2022-11-18T19:15:40.104Z,6.33
2022-11-18T19:18:26.517Z,6.37
2022-11-18T19:21:12.391Z,6.92
2022-11-18T19:23:58.808Z,7.63
2022-11-18T19:26:44.633Z,7.29
2022-11-18T19:29:30.985Z,6.73
2022-11-18T19:32:16.992Z,6.88
2022-11-18T19:35:03.734Z,6.51
2022-11-18T19:37:49.608Z,6.85
2022-11-18T19:40:36.096Z,6.71
2022-11-18T19:43:21.869Z,6.51
2022-11-18T19:46:07.928Z,6.61
2022-11-18T19:48:55.780Z,6.61
2022-11-18T19:51:42.035Z,6.55
2022-11-18T19:54:28.008Z,6.69
2022-11-18T19:57:14.511Z,6.54
2022-11-18T20:00:00.297Z,6.69
2022-11-18T20:02:46.731Z,6.95
2022-11-18T20:05:52.583Z,6.59
2022-11-18T20:08:39.258Z,6.21
2022-11-18T20:11:25.353Z,6.16
2022-11-18T20:14:12.029Z,6.27
2022-11-18T20:16:58.035Z,5.84
2022-11-18T20:19:44.041Z,5.78
2022-11-18T20:22:30.434Z,5.56
2022-11-18T20:25:16.193Z,5.59
2022-11-18T20:28:02.121Z,5.64
2022-11-18T20:30:48.074Z,5.56
2022-11-18T20:33:38.148Z,5.43
2022-11-18T20:36:25.171Z,5.46
2022-11-18T20:39:12.554Z,5.23
2022-11-18T20:42:17.137Z,5.32
2022-11-18T20:45:03.335Z,5.13
2022-11-18T20:47:49.574Z,5.17
2022-11-18T20:50:37.614Z,5.34
2022-11-18T20:53:25.531Z,5.08
2022-11-18T20:56:13.135Z,4.99
2022-11-18T20:58:58.866Z,4.96
2022-11-18T21:01:44.910Z,4.95
2022-11-18T21:04:30.622Z,4.71
2022-11-18T21:07:16.953Z,4.84
2022-11-18T21:10:02.835Z,4.82
2022-11-18T21:13:07.500Z,4.83
2022-11-18T21:15:53.218Z,4.48
2022-11-18T21:18:39.151Z,4.53
2022-11-18T21:21:43.745Z,4.43
2022-11-18T21:24:30.936Z,4.27
2022-11-18T21:27:16.934Z,4.03
2022-11-18T21:30:03.366Z,4.03
2022-11-18T21:32:49.673Z,3.87
2022-11-18T21:35:35.870Z,3.85
2022-11-18T21:38:21.714Z,3.71
2022-11-18T21:41:08.367Z,3.68
2022-11-18T21:44:09.253Z,3.89
2022-11-18T21:46:55.204Z,3.88
2022-11-18T21:49:41.117Z,3.86
2022-11-18T21:52:26.998Z,3.75
2022-11-18T21:55:12.975Z,3.70
2022-11-18T21:58:02.995Z,3.46
2022-11-18T22:00:50.069Z,3.57
2022-11-18T22:03:37.007Z,3.55
2022-11-18T22:06:26.410Z,3.54
2022-11-18T22:09:12.733Z,3.53
2022-11-18T22:11:58.681Z,3.59
2022-11-18T22:14:45.114Z,3.46
2022-11-18T22:17:30.838Z,3.40
2022-11-18T22:20:16.700Z,3.37
2022-11-18T22:23:02.585Z,3.33
2022-11-18T22:25:55.343Z,3.46
2022-11-18T22:28:41.347Z,3.38
2022-11-18T22:31:28.034Z,3.11
2022-11-18T22:34:13.892Z,3.22
2022-11-18T22:37:00.190Z,3.22
2022-11-18T22:39:47.511Z,3.13
2022-11-18T22:42:49.090Z,3.12
2022-11-18T22:45:35.008Z,3.02
2022-11-18T22:48:21.050Z,3.14
2022-11-18T22:51:06.720Z,2.97
2022-11-18T22:54:09.742Z,2.99
2022-11-18T22:56:58.827Z,2.98
2022-11-18T22:59:45.188Z,2.85
2022-11-18T23:02:31.177Z,2.89
2022-11-18T23:05:17.335Z,2.75
2022-11-18T23:08:03.044Z,2.91
2022-11-18T23:10:50.158Z,2.88
2022-11-18T23:13:54.475Z,2.84
2022-11-18T23:16:41.573Z,2.64
2022-11-18T23:19:27.270Z,2.61
2022-11-18T23:22:13.527Z,2.81
2022-11-18T23:24:58.960Z,2.65
2022-11-18T23:27:45.303Z,2.70
2022-11-18T23:30:31.804Z,2.74
2022-11-18T23:33:17.960Z,2.60
2022-11-18T23:36:04.357Z,3.17
2022-11-18T23:38:51.495Z,2.66
2022-11-18T23:41:37.634Z,2.89
2022-11-18T23:44:43.949Z,2.95
2022-11-18T23:47:29.745Z,2.82
2022-11-18T23:50:16.093Z,3.21
2022-11-18T23:53:02.139Z,2.96
2022-11-18T23:55:48.644Z,3.22
2022-11-18T23:58:34.490Z,2.90
